sensor_id;sensor_type;location;lat;lon;timestamp;P1;durP1;ratioP1;P2;durP2;ratioP2
71125;SDS011;58785;55.566;38.058;2024-01-30T00:01:58;14.40;;;3.00;;
71125;SDS011;58785;55.566;38.058;2024-01-30T00:04:24;11.32;;;2.83;;
71125;SDS011;58785;55.566;38.058;2024-01-30T00:06:50;10.87;;;3.53;;
71125;SDS011;58785;55.566;38.058;2024-01-30T00:09:16;10.88;;;3.53;;
71125;SDS011;58785;55.566;38.058;2024-01-30T00:11:42;10.40;;;2.83;;
71125;SDS011;58785;55.566;38.058;2024-01-30T00:14:07;12.20;;;3.90;;
71125;SDS011;58785;55.566;38.058;2024-01-30T00:16:33;11.77;;;2.73;;
71125;SDS011;58785;55.566;38.058;2024-01-30T00:18:59;12.32;;;3.67;;
71125;SDS011;58785;55.566;38.058;2024-01-30T00:21:27;10.43;;;3.03;;
71125;SDS011;58785;55.566;38.058;2024-01-30T00:23:53;9.43;;;3.03;;
71125;SDS011;58785;55.566;38.058;2024-01-30T00:26:19;14.60;;;4.10;;
71125;SDS011;58785;55.566;38.058;2024-01-30T00:28:44;11.32;;;3.05;;
71125;SDS011;58785;55.566;38.058;2024-01-30T00:31:10;10.57;;;2.97;;
71125;SDS011;58785;55.566;38.058;2024-01-30T00:33:41;10.55;;;3.88;;
71125;SDS011;58785;55.566;38.058;2024-01-30T00:36:07;11.45;;;3.88;;
71125;SDS011;58785;55.566;38.058;2024-01-30T00:38:35;10.63;;;3.70;;
71125;SDS011;58785;55.566;38.058;2024-01-30T00:41:01;12.82;;;3.53;;
71125;SDS011;58785;55.566;38.058;2024-01-30T00:43:29;12.77;;;3.80;;
71125;SDS011;58785;55.566;38.058;2024-01-30T00:45:55;10.63;;;3.05;;
71125;SDS011;58785;55.566;38.058;2024-01-30T00:48:20;11.40;;;3.70;;
71125;SDS011;58785;55.566;38.058;2024-01-30T00:50:46;9.87;;;2.77;;
71125;SDS011;58785;55.566;38.058;2024-01-30T00:53:12;13.23;;;3.22;;
71125;SDS011;58785;55.566;38.058;2024-01-30T00:55:38;10.17;;;3.50;;
71125;SDS011;58785;55.566;38.058;2024-01-30T00:58:03;10.93;;;3.45;;
71125;SDS011;58785;55.566;38.058;2024-01-30T01:00:29;13.48;;;4.07;;
71125;SDS011;58785;55.566;38.058;2024-01-30T01:02:56;11.70;;;3.37;;
71125;SDS011;58785;55.566;38.058;2024-01-30T01:05:21;12.10;;;4.53;;
71125;SDS011;58785;55.566;38.058;2024-01-30T01:07:47;9.83;;;3.03;;
71125;SDS011;58785;55.566;38.058;2024-01-30T01:10:13;10.48;;;2.92;;
71125;SDS011;58785;55.566;38.058;2024-01-30T01:12:41;9.73;;;3.38;;
71125;SDS011;58785;55.566;38.058;2024-01-30T01:15:07;11.60;;;3.20;;
71125;SDS011;58785;55.566;38.058;2024-01-30T01:17:35;9.90;;;3.35;;
71125;SDS011;58785;55.566;38.058;2024-01-30T01:20:01;12.27;;;3.60;;
71125;SDS011;58785;55.566;38.058;2024-01-30T01:22:29;13.20;;;4.05;;
71125;SDS011;58785;55.566;38.058;2024-01-30T01:24:55;10.07;;;3.73;;
71125;SDS011;58785;55.566;38.058;2024-01-30T01:27:20;12.02;;;3.38;;
71125;SDS011;58785;55.566;38.058;2024-01-30T01:29:46;10.20;;;3.33;;
71125;SDS011;58785;55.566;38.058;2024-01-30T01:32:12;12.43;;;3.65;;
71125;SDS011;58785;55.566;38.058;2024-01-30T01:34:37;12.77;;;4.57;;
71125;SDS011;58785;55.566;38.058;2024-01-30T01:37:03;12.23;;;3.88;;
71125;SDS011;58785;55.566;38.058;2024-01-30T01:39:29;11.40;;;3.17;;
71125;SDS011;58785;55.566;38.058;2024-01-30T01:41:55;13.60;;;4.93;;
71125;SDS011;58785;55.566;38.058;2024-01-30T01:44:21;11.95;;;3.88;;
71125;SDS011;58785;55.566;38.058;2024-01-30T01:46:46;16.20;;;4.03;;
71125;SDS011;58785;55.566;38.058;2024-01-30T01:49:13;10.65;;;3.15;;
71125;SDS011;58785;55.566;38.058;2024-01-30T01:51:39;12.57;;;3.83;;
71125;SDS011;58785;55.566;38.058;2024-01-30T01:54:07;13.00;;;3.97;;
71125;SDS011;58785;55.566;38.058;2024-01-30T01:56:34;10.40;;;3.57;;
71125;SDS011;58785;55.566;38.058;2024-01-30T01:59:03;12.05;;;3.65;;
71125;SDS011;58785;55.566;38.058;2024-01-30T02:01:32;12.00;;;3.25;;
71125;SDS011;58785;55.566;38.058;2024-01-30T02:04:01;11.80;;;3.42;;
71125;SDS011;58785;55.566;38.058;2024-01-30T02:06:27;10.80;;;2.75;;
71125;SDS011;58785;55.566;38.058;2024-01-30T02:08:53;9.93;;;3.13;;
71125;SDS011;58785;55.566;38.058;2024-01-30T02:11:19;9.65;;;3.17;;
71125;SDS011;58785;55.566;38.058;2024-01-30T02:13:46;9.90;;;2.88;;
71125;SDS011;58785;55.566;38.058;2024-01-30T02:16:12;12.45;;;4.40;;
71125;SDS011;58785;55.566;38.058;2024-01-30T02:18:38;13.77;;;4.07;;
71125;SDS011;58785;55.566;38.058;2024-01-30T02:21:16;11.80;;;3.67;;
71125;SDS011;58785;55.566;38.058;2024-01-30T02:23:44;15.10;;;3.90;;
71125;SDS011;58785;55.566;38.058;2024-01-30T02:26:13;10.38;;;3.20;;
71125;SDS011;58785;55.566;38.058;2024-01-30T02:28:39;10.85;;;3.15;;
71125;SDS011;58785;55.566;38.058;2024-01-30T02:31:05;11.37;;;2.87;;
71125;SDS011;58785;55.566;38.058;2024-01-30T02:33:30;10.13;;;2.88;;
71125;SDS011;58785;55.566;38.058;2024-01-30T02:35:56;9.75;;;3.08;;
71125;SDS011;58785;55.566;38.058;2024-01-30T02:38:22;10.53;;;2.83;;
71125;SDS011;58785;55.566;38.058;2024-01-30T02:40:49;10.35;;;3.15;;
71125;SDS011;58785;55.566;38.058;2024-01-30T02:43:15;10.48;;;3.97;;
71125;SDS011;58785;55.566;38.058;2024-01-30T02:45:42;12.27;;;3.97;;
71125;SDS011;58785;55.566;38.058;2024-01-30T02:48:08;11.63;;;3.83;;
71125;SDS011;58785;55.566;38.058;2024-01-30T02:50:34;11.45;;;3.75;;
71125;SDS011;58785;55.566;38.058;2024-01-30T02:53:00;12.80;;;4.00;;
71125;SDS011;58785;55.566;38.058;2024-01-30T02:55:26;8.27;;;3.23;;
71125;SDS011;58785;55.566;38.058;2024-01-30T02:57:51;13.38;;;4.68;;
71125;SDS011;58785;55.566;38.058;2024-01-30T03:00:18;10.47;;;3.77;;
71125;SDS011;58785;55.566;38.058;2024-01-30T03:02:45;10.25;;;3.55;;
71125;SDS011;58785;55.566;38.058;2024-01-30T03:05:11;12.57;;;4.45;;
71125;SDS011;58785;55.566;38.058;2024-01-30T03:07:36;9.90;;;2.97;;
71125;SDS011;58785;55.566;38.058;2024-01-30T03:10:03;10.32;;;3.50;;
71125;SDS011;58785;55.566;38.058;2024-01-30T03:12:30;12.52;;;3.92;;
71125;SDS011;58785;55.566;38.058;2024-01-30T03:14:55;9.87;;;3.27;;
71125;SDS011;58785;55.566;38.058;2024-01-30T03:17:21;10.50;;;3.57;;
71125;SDS011;58785;55.566;38.058;2024-01-30T03:19:46;9.15;;;3.33;;
71125;SDS011;58785;55.566;38.058;2024-01-30T03:22:12;8.83;;;3.33;;
71125;SDS011;58785;55.566;38.058;2024-01-30T03:24:38;11.93;;;3.77;;
71125;SDS011;58785;55.566;38.058;2024-01-30T03:27:04;13.30;;;3.90;;
71125;SDS011;58785;55.566;38.058;2024-01-30T03:29:29;10.70;;;2.80;;
71125;SDS011;58785;55.566;38.058;2024-01-30T03:31:55;11.43;;;3.00;;
71125;SDS011;58785;55.566;38.058;2024-01-30T03:34:20;12.73;;;4.15;;
71125;SDS011;58785;55.566;38.058;2024-01-30T03:36:46;11.40;;;3.80;;
71125;SDS011;58785;55.566;38.058;2024-01-30T03:39:12;12.18;;;4.05;;
71125;SDS011;58785;55.566;38.058;2024-01-30T03:41:41;11.70;;;3.30;;
71125;SDS011;58785;55.566;38.058;2024-01-30T03:44:08;11.27;;;3.22;;
71125;SDS011;58785;55.566;38.058;2024-01-30T03:46:33;11.00;;;3.67;;
71125;SDS011;58785;55.566;38.058;2024-01-30T03:48:59;10.30;;;3.20;;
71125;SDS011;58785;55.566;38.058;2024-01-30T03:51:24;10.47;;;3.83;;
71125;SDS011;58785;55.566;38.058;2024-01-30T03:53:50;10.17;;;3.33;;
71125;SDS011;58785;55.566;38.058;2024-01-30T03:56:16;13.03;;;3.67;;
71125;SDS011;58785;55.566;38.058;2024-01-30T03:58:41;11.27;;;3.33;;
71125;SDS011;58785;55.566;38.058;2024-01-30T04:01:07;10.70;;;3.63;;
71125;SDS011;58785;55.566;38.058;2024-01-30T04:03:33;12.32;;;3.90;;
71125;SDS011;58785;55.566;38.058;2024-01-30T04:05:58;13.47;;;4.07;;
71125;SDS011;58785;55.566;38.058;2024-01-30T04:08:24;13.10;;;3.60;;
71125;SDS011;58785;55.566;38.058;2024-01-30T04:10:50;11.70;;;3.37;;
71125;SDS011;58785;55.566;38.058;2024-01-30T04:13:15;11.43;;;3.63;;
71125;SDS011;58785;55.566;38.058;2024-01-30T04:15:41;12.48;;;4.03;;
71125;SDS011;58785;55.566;38.058;2024-01-30T04:18:06;10.37;;;3.87;;
71125;SDS011;58785;55.566;38.058;2024-01-30T04:20:32;11.63;;;4.05;;
71125;SDS011;58785;55.566;38.058;2024-01-30T04:22:58;10.80;;;3.90;;
71125;SDS011;58785;55.566;38.058;2024-01-30T04:25:23;12.88;;;3.40;;
71125;SDS011;58785;55.566;38.058;2024-01-30T04:27:49;11.97;;;3.57;;
71125;SDS011;58785;55.566;38.058;2024-01-30T04:30:15;10.70;;;3.27;;
71125;SDS011;58785;55.566;38.058;2024-01-30T04:32:40;10.80;;;3.87;;
71125;SDS011;58785;55.566;38.058;2024-01-30T04:35:06;9.38;;;3.13;;
71125;SDS011;58785;55.566;38.058;2024-01-30T04:37:32;10.17;;;3.87;;
71125;SDS011;58785;55.566;38.058;2024-01-30T04:39:58;10.57;;;3.17;;
71125;SDS011;58785;55.566;38.058;2024-01-30T04:42:25;11.93;;;3.95;;
71125;SDS011;58785;55.566;38.058;2024-01-30T04:44:51;10.30;;;3.10;;
71125;SDS011;58785;55.566;38.058;2024-01-30T04:47:17;12.30;;;3.90;;
71125;SDS011;58785;55.566;38.058;2024-01-30T04:49:42;9.82;;;3.33;;
71125;SDS011;58785;55.566;38.058;2024-01-30T04:52:08;11.07;;;3.33;;
71125;SDS011;58785;55.566;38.058;2024-01-30T04:54:34;11.32;;;3.58;;
71125;SDS011;58785;55.566;38.058;2024-01-30T04:57:01;14.33;;;4.00;;
71125;SDS011;58785;55.566;38.058;2024-01-30T04:59:27;9.50;;;3.10;;
71125;SDS011;58785;55.566;38.058;2024-01-30T05:01:53;8.93;;;3.45;;
71125;SDS011;58785;55.566;38.058;2024-01-30T05:04:19;12.47;;;3.60;;
71125;SDS011;58785;55.566;38.058;2024-01-30T05:06:45;12.18;;;3.75;;
71125;SDS011;58785;55.566;38.058;2024-01-30T05:09:11;8.55;;;3.22;;
71125;SDS011;58785;55.566;38.058;2024-01-30T05:11:40;8.88;;;3.30;;
71125;SDS011;58785;55.566;38.058;2024-01-30T05:14:06;14.53;;;4.67;;
71125;SDS011;58785;55.566;38.058;2024-01-30T05:16:32;9.18;;;2.85;;
71125;SDS011;58785;55.566;38.058;2024-01-30T05:18:58;11.27;;;3.78;;
71125;SDS011;58785;55.566;38.058;2024-01-30T05:21:24;11.02;;;3.50;;
71125;SDS011;58785;55.566;38.058;2024-01-30T05:23:50;9.10;;;3.60;;
71125;SDS011;58785;55.566;38.058;2024-01-30T05:26:16;10.97;;;3.47;;
71125;SDS011;58785;55.566;38.058;2024-01-30T05:28:42;9.93;;;3.20;;
71125;SDS011;58785;55.566;38.058;2024-01-30T05:31:09;10.23;;;3.20;;
71125;SDS011;58785;55.566;38.058;2024-01-30T05:33:35;10.50;;;3.05;;
71125;SDS011;58785;55.566;38.058;2024-01-30T05:36:01;9.77;;;2.25;;
71125;SDS011;58785;55.566;38.058;2024-01-30T05:38:26;11.10;;;3.37;;
71125;SDS011;58785;55.566;38.058;2024-01-30T05:40:52;9.80;;;3.10;;
71125;SDS011;58785;55.566;38.058;2024-01-30T05:43:18;9.73;;;3.10;;
71125;SDS011;58785;55.566;38.058;2024-01-30T05:45:43;12.63;;;3.40;;
71125;SDS011;58785;55.566;38.058;2024-01-30T05:48:09;10.13;;;3.50;;
71125;SDS011;58785;55.566;38.058;2024-01-30T05:50:35;9.60;;;2.83;;
71125;SDS011;58785;55.566;38.058;2024-01-30T05:53:00;12.60;;;4.03;;
71125;SDS011;58785;55.566;38.058;2024-01-30T05:55:26;9.83;;;3.63;;
71125;SDS011;58785;55.566;38.058;2024-01-30T05:57:52;10.43;;;4.00;;
71125;SDS011;58785;55.566;38.058;2024-01-30T06:00:18;10.50;;;3.08;;
71125;SDS011;58785;55.566;38.058;2024-01-30T06:02:43;9.70;;;3.47;;
71125;SDS011;58785;55.566;38.058;2024-01-30T06:05:09;12.52;;;3.67;;
71125;SDS011;58785;55.566;38.058;2024-01-30T06:07:35;10.80;;;3.30;;
71125;SDS011;58785;55.566;38.058;2024-01-30T06:10:01;9.90;;;3.50;;
71125;SDS011;58785;55.566;38.058;2024-01-30T06:12:29;12.82;;;4.10;;
71125;SDS011;58785;55.566;38.058;2024-01-30T06:14:55;13.27;;;3.93;;
71125;SDS011;58785;55.566;38.058;2024-01-30T06:17:22;12.02;;;3.90;;
71125;SDS011;58785;55.566;38.058;2024-01-30T06:19:48;11.15;;;3.92;;
71125;SDS011;58785;55.566;38.058;2024-01-30T06:22:14;10.27;;;3.83;;
71125;SDS011;58785;55.566;38.058;2024-01-30T06:24:41;10.00;;;3.75;;
71125;SDS011;58785;55.566;38.058;2024-01-30T06:27:06;14.23;;;3.83;;
71125;SDS011;58785;55.566;38.058;2024-01-30T06:29:32;11.10;;;4.23;;
71125;SDS011;58785;55.566;38.058;2024-01-30T06:31:57;11.00;;;3.73;;
71125;SDS011;58785;55.566;38.058;2024-01-30T06:34:23;11.37;;;4.30;;
71125;SDS011;58785;55.566;38.058;2024-01-30T06:36:49;10.23;;;3.20;;
71125;SDS011;58785;55.566;38.058;2024-01-30T06:39:14;12.98;;;4.03;;
71125;SDS011;58785;55.566;38.058;2024-01-30T06:41:40;10.03;;;4.10;;
71125;SDS011;58785;55.566;38.058;2024-01-30T06:44:06;11.75;;;3.40;;
71125;SDS011;58785;55.566;38.058;2024-01-30T06:46:33;10.05;;;3.67;;
71125;SDS011;58785;55.566;38.058;2024-01-30T06:48:59;14.18;;;4.38;;
71125;SDS011;58785;55.566;38.058;2024-01-30T06:51:25;13.60;;;4.57;;
71125;SDS011;58785;55.566;38.058;2024-01-30T06:53:50;14.52;;;5.03;;
71125;SDS011;58785;55.566;38.058;2024-01-30T06:56:16;10.93;;;3.50;;
71125;SDS011;58785;55.566;38.058;2024-01-30T06:58:47;12.93;;;4.40;;
71125;SDS011;58785;55.566;38.058;2024-01-30T07:01:13;11.00;;;3.97;;
71125;SDS011;58785;55.566;38.058;2024-01-30T07:03:39;13.10;;;4.18;;
71125;SDS011;58785;55.566;38.058;2024-01-30T07:06:05;14.50;;;3.87;;
71125;SDS011;58785;55.566;38.058;2024-01-30T07:08:31;12.85;;;4.43;;
71125;SDS011;58785;55.566;38.058;2024-01-30T07:10:57;14.70;;;5.33;;
71125;SDS011;58785;55.566;38.058;2024-01-30T07:13:22;11.80;;;4.32;;
71125;SDS011;58785;55.566;38.058;2024-01-30T07:15:48;16.23;;;4.57;;
71125;SDS011;58785;55.566;38.058;2024-01-30T07:18:14;12.45;;;4.28;;
71125;SDS011;58785;55.566;38.058;2024-01-30T07:20:39;10.40;;;3.87;;
71125;SDS011;58785;55.566;38.058;2024-01-30T07:23:11;12.50;;;4.63;;
71125;SDS011;58785;55.566;38.058;2024-01-30T07:25:42;12.07;;;4.38;;
71125;SDS011;58785;55.566;38.058;2024-01-30T07:28:08;10.50;;;3.75;;
71125;SDS011;58785;55.566;38.058;2024-01-30T07:30:42;13.63;;;4.33;;
71125;SDS011;58785;55.566;38.058;2024-01-30T07:33:08;12.27;;;4.07;;
71125;SDS011;58785;55.566;38.058;2024-01-30T07:35:34;14.73;;;4.88;;
71125;SDS011;58785;55.566;38.058;2024-01-30T07:38:01;17.55;;;4.57;;
71125;SDS011;58785;55.566;38.058;2024-01-30T07:40:27;13.60;;;4.13;;
71125;SDS011;58785;55.566;38.058;2024-01-30T07:42:53;11.23;;;3.83;;
71125;SDS011;58785;55.566;38.058;2024-01-30T07:45:19;14.18;;;4.63;;
71125;SDS011;58785;55.566;38.058;2024-01-30T07:47:49;13.45;;;4.30;;
71125;SDS011;58785;55.566;38.058;2024-01-30T07:50:16;11.52;;;4.55;;
71125;SDS011;58785;55.566;38.058;2024-01-30T07:52:42;11.23;;;4.83;;
71125;SDS011;58785;55.566;38.058;2024-01-30T07:55:23;15.10;;;4.63;;
71125;SDS011;58785;55.566;38.058;2024-01-30T07:58:36;11.25;;;4.45;;
71125;SDS011;58785;55.566;38.058;2024-01-30T08:01:02;12.25;;;4.55;;
71125;SDS011;58785;55.566;38.058;2024-01-30T08:03:28;13.73;;;4.77;;
71125;SDS011;58785;55.566;38.058;2024-01-30T08:05:54;13.32;;;5.20;;
71125;SDS011;58785;55.566;38.058;2024-01-30T08:08:19;13.50;;;4.07;;
71125;SDS011;58785;55.566;38.058;2024-01-30T08:10:45;12.63;;;4.22;;
71125;SDS011;58785;55.566;38.058;2024-01-30T08:13:10;13.33;;;5.40;;
71125;SDS011;58785;55.566;38.058;2024-01-30T08:15:36;11.90;;;3.87;;
71125;SDS011;58785;55.566;38.058;2024-01-30T08:18:01;13.15;;;4.97;;
71125;SDS011;58785;55.566;38.058;2024-01-30T08:20:27;13.43;;;5.07;;
71125;SDS011;58785;55.566;38.058;2024-01-30T08:22:53;17.88;;;5.28;;
71125;SDS011;58785;55.566;38.058;2024-01-30T08:25:18;14.30;;;4.60;;
71125;SDS011;58785;55.566;38.058;2024-01-30T08:27:45;13.57;;;4.30;;
71125;SDS011;58785;55.566;38.058;2024-01-30T08:30:11;13.77;;;4.85;;
71125;SDS011;58785;55.566;38.058;2024-01-30T08:32:37;10.03;;;3.90;;
71125;SDS011;58785;55.566;38.058;2024-01-30T08:35:02;13.10;;;4.13;;
71125;SDS011;58785;55.566;38.058;2024-01-30T08:37:29;15.50;;;5.22;;
71125;SDS011;58785;55.566;38.058;2024-01-30T08:39:55;12.97;;;4.80;;
71125;SDS011;58785;55.566;38.058;2024-01-30T08:42:23;13.15;;;5.07;;
71125;SDS011;58785;55.566;38.058;2024-01-30T08:44:49;14.43;;;5.05;;
71125;SDS011;58785;55.566;38.058;2024-01-30T08:47:17;11.45;;;3.92;;
71125;SDS011;58785;55.566;38.058;2024-01-30T08:49:44;13.40;;;4.77;;
71125;SDS011;58785;55.566;38.058;2024-01-30T08:52:13;15.10;;;4.85;;
71125;SDS011;58785;55.566;38.058;2024-01-30T08:54:38;17.80;;;5.00;;
71125;SDS011;58785;55.566;38.058;2024-01-30T08:57:04;14.40;;;5.07;;
71125;SDS011;58785;55.566;38.058;2024-01-30T08:59:30;16.20;;;5.50;;
71125;SDS011;58785;55.566;38.058;2024-01-30T09:01:56;12.27;;;5.05;;
71125;SDS011;58785;55.566;38.058;2024-01-30T09:04:23;13.93;;;5.07;;
71125;SDS011;58785;55.566;38.058;2024-01-30T09:06:49;16.97;;;5.63;;
71125;SDS011;58785;55.566;38.058;2024-01-30T09:09:15;14.38;;;4.70;;
71125;SDS011;58785;55.566;38.058;2024-01-30T09:11:41;17.35;;;4.72;;
71125;SDS011;58785;55.566;38.058;2024-01-30T09:14:07;15.13;;;6.10;;
71125;SDS011;58785;55.566;38.058;2024-01-30T09:16:32;18.60;;;5.32;;
71125;SDS011;58785;55.566;38.058;2024-01-30T09:18:58;17.07;;;5.37;;
71125;SDS011;58785;55.566;38.058;2024-01-30T09:21:23;15.65;;;5.38;;
71125;SDS011;58785;55.566;38.058;2024-01-30T09:23:49;15.33;;;5.53;;
71125;SDS011;58785;55.566;38.058;2024-01-30T09:26:14;16.30;;;5.03;;
71125;SDS011;58785;55.566;38.058;2024-01-30T09:28:40;16.45;;;5.47;;
71125;SDS011;58785;55.566;38.058;2024-01-30T09:31:11;13.75;;;4.82;;
71125;SDS011;58785;55.566;38.058;2024-01-30T09:33:39;14.87;;;5.07;;
71125;SDS011;58785;55.566;38.058;2024-01-30T09:36:05;13.43;;;4.82;;
71125;SDS011;58785;55.566;38.058;2024-01-30T09:38:31;12.20;;;4.50;;
71125;SDS011;58785;55.566;38.058;2024-01-30T09:40:57;15.87;;;4.73;;
71125;SDS011;58785;55.566;38.058;2024-01-30T09:43:30;13.60;;;4.85;;
71125;SDS011;58785;55.566;38.058;2024-01-30T09:45:59;19.92;;;4.80;;
71125;SDS011;58785;55.566;38.058;2024-01-30T09:48:27;11.70;;;4.30;;
71125;SDS011;58785;55.566;38.058;2024-01-30T09:50:54;14.35;;;5.47;;
71125;SDS011;58785;55.566;38.058;2024-01-30T09:53:21;13.63;;;5.13;;
71125;SDS011;58785;55.566;38.058;2024-01-30T09:55:47;14.43;;;5.43;;
71125;SDS011;58785;55.566;38.058;2024-01-30T09:58:16;14.35;;;5.50;;
71125;SDS011;58785;55.566;38.058;2024-01-30T10:00:42;16.27;;;5.93;;
71125;SDS011;58785;55.566;38.058;2024-01-30T10:03:08;14.73;;;5.50;;
71125;SDS011;58785;55.566;38.058;2024-01-30T10:05:35;14.98;;;5.75;;
71125;SDS011;58785;55.566;38.058;2024-01-30T10:08:06;15.20;;;5.47;;
71125;SDS011;58785;55.566;38.058;2024-01-30T10:10:35;15.55;;;5.20;;
71125;SDS011;58785;55.566;38.058;2024-01-30T10:13:01;17.30;;;5.80;;
71125;SDS011;58785;55.566;38.058;2024-01-30T10:15:28;17.52;;;6.18;;
71125;SDS011;58785;55.566;38.058;2024-01-30T10:17:54;16.13;;;5.75;;
71125;SDS011;58785;55.566;38.058;2024-01-30T10:20:20;17.10;;;5.43;;
71125;SDS011;58785;55.566;38.058;2024-01-30T10:22:47;15.80;;;5.45;;
71125;SDS011;58785;55.566;38.058;2024-01-30T10:25:14;15.57;;;5.17;;
71125;SDS011;58785;55.566;38.058;2024-01-30T10:27:40;16.88;;;5.80;;
71125;SDS011;58785;55.566;38.058;2024-01-30T10:30:07;17.75;;;4.90;;
71125;SDS011;58785;55.566;38.058;2024-01-30T10:32:33;15.23;;;5.40;;
71125;SDS011;58785;55.566;38.058;2024-01-30T10:35:00;18.58;;;6.03;;
71125;SDS011;58785;55.566;38.058;2024-01-30T10:37:26;17.23;;;6.40;;
71125;SDS011;58785;55.566;38.058;2024-01-30T10:39:56;16.33;;;5.13;;
71125;SDS011;58785;55.566;38.058;2024-01-30T10:42:31;16.50;;;5.20;;
71125;SDS011;58785;55.566;38.058;2024-01-30T10:47:30;19.48;;;5.43;;
71125;SDS011;58785;55.566;38.058;2024-01-30T10:49:59;14.48;;;5.13;;
71125;SDS011;58785;55.566;38.058;2024-01-30T10:52:25;14.00;;;5.47;;
71125;SDS011;58785;55.566;38.058;2024-01-30T10:54:51;13.30;;;5.80;;
71125;SDS011;58785;55.566;38.058;2024-01-30T10:57:17;18.13;;;5.07;;
71125;SDS011;58785;55.566;38.058;2024-01-30T10:59:43;14.93;;;5.22;;
71125;SDS011;58785;55.566;38.058;2024-01-30T11:02:10;18.35;;;6.88;;
71125;SDS011;58785;55.566;38.058;2024-01-30T11:04:45;12.97;;;5.20;;
71125;SDS011;58785;55.566;38.058;2024-01-30T11:07:17;13.13;;;5.18;;
71125;SDS011;58785;55.566;38.058;2024-01-30T11:09:52;15.65;;;5.70;;
71125;SDS011;58785;55.566;38.058;2024-01-30T11:12:22;17.35;;;4.93;;
71125;SDS011;58785;55.566;38.058;2024-01-30T11:14:49;14.35;;;5.05;;
71125;SDS011;58785;55.566;38.058;2024-01-30T11:17:27;15.03;;;5.40;;
71125;SDS011;58785;55.566;38.058;2024-01-30T11:19:53;18.10;;;5.55;;
71125;SDS011;58785;55.566;38.058;2024-01-30T11:22:20;14.35;;;4.93;;
71125;SDS011;58785;55.566;38.058;2024-01-30T11:24:46;15.20;;;5.67;;
71125;SDS011;58785;55.566;38.058;2024-01-30T11:27:12;13.68;;;5.38;;
71125;SDS011;58785;55.566;38.058;2024-01-30T11:29:40;15.68;;;5.55;;
71125;SDS011;58785;55.566;38.058;2024-01-30T11:32:05;13.02;;;4.85;;
71125;SDS011;58785;55.566;38.058;2024-01-30T11:34:32;14.40;;;5.33;;
71125;SDS011;58785;55.566;38.058;2024-01-30T11:37:03;15.00;;;5.57;;
71125;SDS011;58785;55.566;38.058;2024-01-30T11:39:34;16.20;;;5.57;;
71125;SDS011;58785;55.566;38.058;2024-01-30T11:42:01;16.80;;;5.28;;
71125;SDS011;58785;55.566;38.058;2024-01-30T11:44:31;16.17;;;5.35;;
71125;SDS011;58785;55.566;38.058;2024-01-30T11:46:56;19.30;;;5.63;;
71125;SDS011;58785;55.566;38.058;2024-01-30T11:49:23;16.48;;;5.57;;
71125;SDS011;58785;55.566;38.058;2024-01-30T11:51:48;21.07;;;6.53;;
71125;SDS011;58785;55.566;38.058;2024-01-30T11:54:15;15.63;;;6.00;;
71125;SDS011;58785;55.566;38.058;2024-01-30T11:56:41;21.58;;;5.95;;
71125;SDS011;58785;55.566;38.058;2024-01-30T11:59:08;17.05;;;6.38;;
71125;SDS011;58785;55.566;38.058;2024-01-30T12:01:34;17.03;;;6.30;;
71125;SDS011;58785;55.566;38.058;2024-01-30T12:04:00;15.60;;;7.00;;
71125;SDS011;58785;55.566;38.058;2024-01-30T12:06:26;20.65;;;6.20;;
71125;SDS011;58785;55.566;38.058;2024-01-30T12:08:56;17.23;;;6.70;;
71125;SDS011;58785;55.566;38.058;2024-01-30T12:11:23;18.75;;;6.75;;
71125;SDS011;58785;55.566;38.058;2024-01-30T12:13:49;17.50;;;7.07;;
71125;SDS011;58785;55.566;38.058;2024-01-30T12:16:17;20.20;;;6.22;;
71125;SDS011;58785;55.566;38.058;2024-01-30T12:18:42;16.40;;;7.00;;
71125;SDS011;58785;55.566;38.058;2024-01-30T12:21:08;15.60;;;6.63;;
71125;SDS011;58785;55.566;38.058;2024-01-30T12:23:34;15.65;;;6.22;;
71125;SDS011;58785;55.566;38.058;2024-01-30T12:26:00;18.40;;;6.03;;
71125;SDS011;58785;55.566;38.058;2024-01-30T12:28:26;14.52;;;5.75;;
71125;SDS011;58785;55.566;38.058;2024-01-30T12:30:55;25.40;;;6.47;;
71125;SDS011;58785;55.566;38.058;2024-01-30T12:33:26;20.45;;;6.97;;
71125;SDS011;58785;55.566;38.058;2024-01-30T12:35:51;18.27;;;5.93;;
71125;SDS011;58785;55.566;38.058;2024-01-30T12:38:17;20.17;;;6.57;;
71125;SDS011;58785;55.566;38.058;2024-01-30T12:40:44;15.60;;;5.20;;
71125;SDS011;58785;55.566;38.058;2024-01-30T12:43:10;16.27;;;6.17;;
71125;SDS011;58785;55.566;38.058;2024-01-30T12:45:36;19.35;;;6.30;;
71125;SDS011;58785;55.566;38.058;2024-01-30T12:48:02;19.30;;;8.03;;
71125;SDS011;58785;55.566;38.058;2024-01-30T12:50:27;13.40;;;5.65;;
71125;SDS011;58785;55.566;38.058;2024-01-30T12:52:53;17.37;;;6.73;;
71125;SDS011;58785;55.566;38.058;2024-01-30T12:55:19;19.67;;;6.30;;
71125;SDS011;58785;55.566;38.058;2024-01-30T12:57:44;19.83;;;6.47;;
71125;SDS011;58785;55.566;38.058;2024-01-30T13:00:10;15.02;;;5.93;;
71125;SDS011;58785;55.566;38.058;2024-01-30T13:02:36;16.10;;;6.30;;
71125;SDS011;58785;55.566;38.058;2024-01-30T13:05:03;19.23;;;6.80;;
71125;SDS011;58785;55.566;38.058;2024-01-30T13:07:30;20.08;;;6.53;;
71125;SDS011;58785;55.566;38.058;2024-01-30T13:09:56;17.13;;;5.87;;
71125;SDS011;58785;55.566;38.058;2024-01-30T13:12:31;19.73;;;6.10;;
71125;SDS011;58785;55.566;38.058;2024-01-30T13:15:01;17.35;;;6.40;;
71125;SDS011;58785;55.566;38.058;2024-01-30T13:17:33;16.45;;;6.32;;
71125;SDS011;58785;55.566;38.058;2024-01-30T13:19:59;19.37;;;6.53;;
71125;SDS011;58785;55.566;38.058;2024-01-30T13:22:25;15.20;;;5.50;;
71125;SDS011;58785;55.566;38.058;2024-01-30T13:24:50;23.47;;;7.20;;
71125;SDS011;58785;55.566;38.058;2024-01-30T13:27:16;19.80;;;6.85;;
71125;SDS011;58785;55.566;38.058;2024-01-30T13:29:42;19.73;;;6.33;;
71125;SDS011;58785;55.566;38.058;2024-01-30T13:32:08;17.80;;;5.93;;
71125;SDS011;58785;55.566;38.058;2024-01-30T13:34:34;20.63;;;7.20;;
71125;SDS011;58785;55.566;38.058;2024-01-30T13:36:59;25.83;;;7.53;;
71125;SDS011;58785;55.566;38.058;2024-01-30T13:39:25;20.20;;;7.40;;
71125;SDS011;58785;55.566;38.058;2024-01-30T13:41:52;22.42;;;7.72;;
71125;SDS011;58785;55.566;38.058;2024-01-30T13:44:18;24.45;;;7.70;;
71125;SDS011;58785;55.566;38.058;2024-01-30T13:46:44;20.00;;;8.00;;
71125;SDS011;58785;55.566;38.058;2024-01-30T13:49:10;18.00;;;6.90;;
71125;SDS011;58785;55.566;38.058;2024-01-30T13:51:36;16.23;;;6.15;;
71125;SDS011;58785;55.566;38.058;2024-01-30T13:54:01;19.47;;;7.33;;
71125;SDS011;58785;55.566;38.058;2024-01-30T13:56:27;21.92;;;7.10;;
71125;SDS011;58785;55.566;38.058;2024-01-30T13:58:54;19.65;;;6.43;;
71125;SDS011;58785;55.566;38.058;2024-01-30T14:01:22;23.73;;;6.67;;
71125;SDS011;58785;55.566;38.058;2024-01-30T14:03:48;16.85;;;6.70;;
71125;SDS011;58785;55.566;38.058;2024-01-30T14:06:14;16.48;;;6.78;;
71125;SDS011;58785;55.566;38.058;2024-01-30T14:08:39;18.83;;;5.97;;
71125;SDS011;58785;55.566;38.058;2024-01-30T14:11:05;19.88;;;5.88;;
71125;SDS011;58785;55.566;38.058;2024-01-30T14:13:32;18.60;;;6.85;;
71125;SDS011;58785;55.566;38.058;2024-01-30T14:15:58;16.20;;;5.77;;
71125;SDS011;58785;55.566;38.058;2024-01-30T14:18:24;18.65;;;5.78;;
71125;SDS011;58785;55.566;38.058;2024-01-30T14:20:51;15.82;;;5.63;;
71125;SDS011;58785;55.566;38.058;2024-01-30T14:23:17;19.65;;;6.35;;